This is the latest recevied weather packets stored in our database for station/object KB9ZGZ. If no packets are shown the sender has not sent any weather packets the latest 10 day(s).
| Time | Temp. | Humidity | Pressure | Rain* | Wind** | Luminosity | Snow |
|---|---|---|---|---|---|---|---|
| 1777605331 | 11.11° C | 90% | 1010.6 hPa | 0.25 mm | - | - | - |
| 1777604430 | 11.11° C | 89% | 1010.7 hPa | 0.25 mm | - | - | - |
| 1777603533 | 11.11° C | 89% | 1010.5 hPa | 0.25 mm | - | - | - |
| 1777602622 | 11.11° C | 88% | 1010.4 hPa | 0.25 mm | - | - | - |
| 1777601724 | 11.11° C | 87% | 1010.4 hPa | 0.25 mm | - | - | - |
| 1777600819 | 11.67° C | 85% | 1010.5 hPa | 0.25 mm | - | - | - |
| 1777599929 | 11.67° C | 83% | 1010.6 hPa | 0.25 mm | - | - | - |
| 1777599043 | 12.22° C | 80% | 1010.4 hPa | 0.25 mm | - | - | - |
| 1777598143 | 12.78° C | 77% | 1010.1 hPa | 0.25 mm | - | - | - |
| 1777597239 | 12.78° C | 75% | 1009.8 hPa | 0.25 mm | - | - | - |
| 1777596336 | 13.33° C | 74% | 1010.2 hPa | 0.25 mm | - | - | - |
| 1777595436 | 13.89° C | 69% | 1009.8 hPa | 0.25 mm | - | - | - |
| 1777594529 | 15.56° C | 60% | 1009.5 hPa | 0.25 mm | - | - | - |
| 1777593624 | 15.56° C | 53% | 1009.4 hPa | 0.25 mm | - | - | - |
| 1777592722 | 16.11° C | 50% | 1009.4 hPa | 0.25 mm | - | - | - |
| 1777591821 | 16.11° C | 48% | 1009.4 hPa | 0.25 mm | - | - | - |
| 1777590920 | 16.11° C | 46% | 1009.5 hPa | 0.25 mm | - | - | - |
| 1777590035 | 16.11° C | 45% | 1009.7 hPa | 0.25 mm | - | - | - |
| 1777589119 | 16.67° C | 45% | 1009.6 hPa | 0.25 mm | - | - | - |
| 1777588219 | 16.67° C | 45% | 1009.7 hPa | 0.25 mm | - | - | - |
| 1777587316 | 17.22° C | 43% | 1009.8 hPa | 0.25 mm | - | - | - |
| 1777586414 | 17.78° C | 42% | 1009.9 hPa | 0.25 mm | - | - | - |
| 1777585511 | 18.89° C | 43% | 1009.9 hPa | 0.25 mm | - | - | - |
| 1777584609 | 18.33° C | 40% | 1009.9 hPa | 0.25 mm | - | - | - |
| 1777583707 | 18.33° C | 40% | 1010.2 hPa | 0.25 mm | - | - | - |
* Rain since midnight (hover to see other rain measurements)
** Current wind speed in m/s (hover to see current wind gust speed)